virtualACA

Welcome To Vancouver International Airport CYVR

Hub Roster

Pilot Domicile Rank
Brian Kozushka - ACA1102CanadaChief Pilot
Jean-Michel Lazare - ACA2310FranceChief Pilot
Doug Fisher - ACA3285CanadaChief Pilot
Christian Parise - ACA3308CanadaNew Hire

Current Vatsim Weather


CYVR 301940Z 18010G17KT 20SM -SHRA FEW022 BKN032 OVC048 08/02 A2976 RMK CU2SC1SC5 SLP078
Vancouver International Airport